Time;durP1;ratioP1;P1;durP2;ratioP2;P2;SDS_P1;SDS_P2;PMS_P1;PMS_P2;Temp;Humidity;BMP_temperature;BMP_pressure;BME280_temperature;BME280_humidity;BME280_pressure;Samples;Min_cycle;Max_cycle;Signal;HPM_P1;HPM_P2
2021/12/06 00:02:27;;;;;;;15.57;11.88;;;;;;;2.41;100.00;99807.28;5013430;28;20065;-53
2021/12/06 00:04:54;;;;;;;19.42;12.68;;;;;;;2.35;100.00;99816.16;5011529;28;20132;-52
2021/12/06 00:07:23;;;;;;;18.58;12.52;;;;;;;2.29;100.00;99811.06;5007974;28;20042;-56
2021/12/06 00:09:50;;;;;;;15.95;12.45;;;;;;;2.25;100.00;99813.75;5012797;28;20552;-52
2021/12/06 00:12:17;;;;;;;17.13;12.18;;;;;;;2.20;100.00;99816.50;5020204;28;20045;-51
2021/12/06 00:14:51;;;;;;;17.85;12.88;;;;;;;2.17;100.00;99815.69;5015543;28;20046;-51
2021/12/06 00:17:19;;;;;;;17.75;12.95;;;;;;;2.13;100.00;99814.03;5009558;28;20057;-53
2021/12/06 00:19:46;;;;;;;17.88;12.80;;;;;;;2.07;100.00;99813.28;5011622;28;20065;-54
2021/12/06 00:22:21;;;;;;;21.30;14.45;;;;;;;2.08;100.00;99821.97;5018541;28;20049;-55
2021/12/06 00:24:53;;;;;;;17.35;12.95;;;;;;;2.06;100.00;99829.84;5016355;28;20579;-53
2021/12/06 00:27:26;;;;;;;16.95;12.70;;;;;;;2.07;100.00;99826.31;5012513;28;20041;-52
2021/12/06 00:29:53;;;;;;;18.15;12.57;;;;;;;2.06;100.00;99823.75;5015414;28;20132;-53
2021/12/06 00:32:24;;;;;;;18.20;12.48;;;;;;;2.04;100.00;99831.66;5011241;28;20404;-53
2021/12/06 00:35:19;;;;;;;20.92;12.80;;;;;;;2.04;100.00;99843.84;5012955;28;20041;-53
2021/12/06 00:38:00;;;;;;;22.15;13.27;;;;;;;1.96;100.00;99827.47;5014309;28;20439;-52
2021/12/06 00:40:38;;;;;;;17.10;13.02;;;;;;;2.11;100.00;99845.41;5005915;28;20072;-52
2021/12/06 00:43:10;;;;;;;18.60;13.15;;;;;;;2.15;100.00;99852.28;5012611;28;20037;-52
2021/12/06 00:45:38;;;;;;;19.65;13.60;;;;;;;2.19;100.00;99851.34;5007773;28;20073;-53
2021/12/06 00:48:12;;;;;;;19.33;13.43;;;;;;;2.23;100.00;99857.34;5008356;28;20632;-56
2021/12/06 00:50:41;;;;;;;19.45;13.68;;;;;;;2.27;100.00;99859.88;5010715;28;20681;-53
2021/12/06 00:53:09;;;;;;;18.97;13.10;;;;;;;2.29;100.00;99860.69;5012226;28;20044;-52
2021/12/06 00:55:40;;;;;;;19.05;12.80;;;;;;;2.29;100.00;99863.31;5005986;28;20465;-53
2021/12/06 00:58:07;;;;;;;19.00;12.38;;;;;;;2.20;100.00;99845.22;5004908;28;20046;-50
2021/12/06 01:00:47;;;;;;;17.83;12.55;;;;;;;2.35;100.00;99873.63;5010187;28;20410;-53
2021/12/06 01:03:30;;;;;;;17.70;13.32;;;;;;;2.39;100.00;99861.34;5017303;28;20042;-53
2021/12/06 01:06:00;;;;;;;15.40;11.55;;;;;;;2.33;100.00;99849.28;5022995;28;20045;-51
2021/12/06 01:08:30;;;;;;;16.02;11.70;;;;;;;2.50;100.00;99872.44;5010803;28;20605;-52
2021/12/06 01:11:01;;;;;;;16.90;11.27;;;;;;;2.52;100.00;99877.63;5018142;28;20046;-52
2021/12/06 01:13:31;;;;;;;17.50;11.27;;;;;;;2.56;100.00;99879.25;5018814;28;20409;-52
2021/12/06 01:16:08;;;;;;;16.35;10.73;;;;;;;2.61;100.00;99882.63;5009808;28;20045;-51
2021/12/06 01:18:39;;;;;;;15.38;10.32;;;;;;;2.65;100.00;99890.38;5000307;28;20056;-52
2021/12/06 01:24:05;;;;;;;16.58;11.10;;;;;;;2.73;100.00;99903.25;5007397;28;20492;-55
2021/12/06 01:31:48;;;;;;;16.00;9.98;;;;;;;2.81;100.00;99912.66;5014927;28;20125;-52
2021/12/06 01:39:59;;;;;;;16.02;10.25;;;;;;;2.69;100.00;99909.44;5011773;28;20229;-52
2021/12/06 01:42:26;;;;;;;17.42;10.55;;;;;;;2.70;100.00;99909.41;5014447;28;20056;-53
2021/12/06 01:44:57;;;;;;;16.45;11.43;;;;;;;2.79;100.00;99918.81;5011602;28;20056;-52
2021/12/06 01:47:32;;;;;;;15.32;11.27;;;;;;;2.80;100.00;99926.63;5003287;28;20403;-53
2021/12/06 01:50:16;;;;;;;17.70;10.82;;;;;;;2.70;100.00;99913.78;5012023;28;20050;-52
2021/12/06 01:52:48;;;;;;;;;;;;;;;2.76;100.00;99935.44;5011774;28;20811;-52
2021/12/06 01:55:23;;;;;;;15.05;11.10;;;;;;;2.70;100.00;99948.63;5013130;28;19931;-53
2021/12/06 01:57:53;;;;;;;15.05;11.15;;;;;;;2.65;100.00;99936.56;5013648;28;20081;-51
2021/12/06 02:00:44;;;;;;;18.15;11.25;;;;;;;2.60;100.00;99941.88;5017841;28;20054;-53
2021/12/06 02:03:11;;;;;;;13.38;10.38;;;;;;;2.59;100.00;99940.16;5019793;28;20128;-52
2021/12/06 02:05:44;;;;;;;17.15;10.80;;;;;;;2.57;100.00;99943.69;5020392;28;20049;-53
2021/12/06 02:08:19;;;;;;;17.60;10.88;;;;;;;2.54;100.00;99938.53;5007568;28;20087;-52
2021/12/06 02:10:46;;;;;;;16.10;10.52;;;;;;;2.47;100.00;99943.06;5008963;28;20052;-52
2021/12/06 02:13:13;;;;;;;14.85;10.40;;;;;;;2.44;100.00;99949.19;5008944;28;20072;-53
2021/12/06 02:15:45;;;;;;;18.17;11.70;;;;;;;2.38;100.00;99949.31;5010610;28;20049;-53
2021/12/06 02:21:18;;;;;;;15.63;10.90;;;;;;;2.40;100.00;99949.28;5007582;28;20048;-52
2021/12/06 02:23:48;;;;;;;14.25;10.30;;;;;;;2.39;100.00;99948.44;5015687;28;20049;-53
2021/12/06 02:26:16;;;;;;;13.65;10.60;;;;;;;2.39;100.00;99951.03;5009062;28;20049;-51
2021/12/06 02:28:47;;;;;;;14.38;9.95;;;;;;;2.40;100.00;99949.28;5012552;28;20065;-51
2021/12/06 02:31:21;;;;;;;13.95;9.70;;;;;;;2.32;100.00;99936.41;5013504;28;20052;-52
2021/12/06 02:33:51;;;;;;;14.15;10.75;;;;;;;2.39;100.00;99958.00;5013397;28;20084;-53
2021/12/06 02:36:20;;;;;;;15.10;10.30;;;;;;;2.37;100.00;99954.56;5015925;28;20072;-54
2021/12/06 02:38:49;;;;;;;14.98;10.32;;;;;;;2.34;100.00;99960.75;5011343;28;20056;-55
2021/12/06 02:41:19;;;;;;;13.87;9.97;;;;;;;2.35;100.00;99959.00;5017152;28;20041;-51
2021/12/06 02:43:52;;;;;;;14.27;10.57;;;;;;;2.32;100.00;99959.91;5018257;28;20042;-55
2021/12/06 02:46:22;;;;;;;14.73;10.48;;;;;;;2.31;100.00;99957.31;5016955;28;20104;-52
2021/12/06 02:48:52;;;;;;;12.82;9.80;;;;;;;2.32;100.00;99965.13;5010029;28;20057;-52
2021/12/06 02:51:24;;;;;;;14.73;10.60;;;;;;;2.32;100.00;99959.06;5013750;28;20479;-52
2021/12/06 02:53:53;;;;;;;13.57;9.85;;;;;;;2.32;100.00;99965.13;5018161;28;20133;-52
2021/12/06 02:56:33;;;;;;;12.65;9.95;;;;;;;2.33;100.00;99966.84;5019738;28;20155;-52
2021/12/06 02:59:04;;;;;;;13.38;9.95;;;;;;;2.35;100.00;99970.31;5015257;28;20079;-52
2021/12/06 03:01:47;;;;;;;13.27;9.75;;;;;;;2.35;100.00;99975.53;5004548;28;20119;-53
2021/12/06 03:04:18;;;;;;;11.45;9.63;;;;;;;2.33;100.00;99982.53;5021283;28;20564;-53
2021/12/06 03:06:55;;;;;;;12.77;10.05;;;;;;;2.35;100.00;99987.72;5021309;28;20069;-52
2021/12/06 03:09:28;;;;;;;14.38;10.57;;;;;;;2.34;100.00;99981.66;5012958;28;20053;-54
2021/12/06 03:12:02;;;;;;;13.75;9.77;;;;;;;2.36;100.00;99990.28;5009185;28;20128;-53
2021/12/06 03:14:36;;;;;;;15.57;10.15;;;;;;;2.39;100.00;99990.22;5007677;28;20045;-52
2021/12/06 03:17:10;;;;;;;18.23;10.40;;;;;;;2.43;100.00;99996.25;5016761;28;20120;-52
2021/12/06 03:19:39;;;;;;;16.08;10.48;;;;;;;2.43;100.00;99991.91;5009815;28;20052;-53
2021/12/06 03:22:08;;;;;;;15.02;10.25;;;;;;;2.46;100.00;99994.47;5011098;28;20065;-53
2021/12/06 03:24:35;;;;;;;13.98;10.60;;;;;;;2.52;100.00;99996.06;5017417;28;20055;-54
2021/12/06 03:27:06;;;;;;;14.43;10.45;;;;;;;2.56;100.00;99999.47;5012580;28;20061;-52
2021/12/06 03:29:32;;;;;;;13.32;10.40;;;;;;;2.59;100.00;100002.03;5012165;28;20056;-52
2021/12/06 03:32:04;;;;;;;14.40;10.70;;;;;;;2.52;100.00;99987.41;5018248;28;20041;-52
2021/12/06 03:34:38;;;;;;;18.05;11.00;;;;;;;2.59;100.00;100008.13;5014139;28;20045;-53
2021/12/06 03:37:08;;;;;;;14.85;10.43;;;;;;;2.55;100.00;100008.22;5018278;28;20045;-51
2021/12/06 03:39:39;;;;;;;16.15;10.85;;;;;;;2.50;100.00;100000.50;5011201;28;20044;-52
2021/12/06 03:42:12;;;;;;;15.57;10.20;;;;;;;2.51;100.00;100009.19;5017464;28;20076;-54
2021/12/06 03:44:42;;;;;;;15.48;10.55;;;;;;;2.54;100.00;100014.34;5018804;28;20049;-52
2021/12/06 03:47:13;;;;;;;15.07;10.55;;;;;;;2.56;100.00;100013.41;5014798;28;20056;-53
2021/12/06 03:49:42;;;;;;;16.25;10.63;;;;;;;2.57;100.00;100016.88;5014181;28;20080;-53
2021/12/06 03:52:09;;;;;;;13.90;10.52;;;;;;;2.58;100.00;100022.09;5015858;28;20128;-52
2021/12/06 03:54:38;;;;;;;15.85;11.00;;;;;;;2.63;100.00;100029.84;5013343;28;20058;-53
2021/12/06 03:57:13;;;;;;;13.18;9.68;;;;;;;2.60;100.00;100029.91;5003739;28;20042;-51
2021/12/06 03:59:43;;;;;;;13.48;9.38;;;;;;;2.60;100.00;100029.91;5002519;28;20049;-53
2021/12/06 04:02:11;;;;;;;11.88;8.57;;;;;;;2.61;100.00;100034.25;5016901;28;20059;-54
2021/12/06 04:04:38;;;;;;;13.77;9.10;;;;;;;2.62;100.00;100025.50;5012148;28;20069;-53
2021/12/06 04:07:11;;;;;;;11.93;8.45;;;;;;;2.60;100.00;100032.50;5006580;28;20065;-53
2021/12/06 04:09:39;;;;;;;13.15;9.10;;;;;;;2.57;100.00;100036.03;5010107;28;20041;-55
2021/12/06 04:12:08;;;;;;;11.15;9.32;;;;;;;2.58;100.00;100043.00;5019470;28;20128;-52
2021/12/06 04:14:40;;;;;;;12.65;9.65;;;;;;;2.58;100.00;100035.16;5013634;28;20075;-51
2021/12/06 04:17:13;;;;;;;15.20;9.75;;;;;;;2.60;100.00;100038.59;5008073;28;20045;-52
2021/12/06 04:19:41;;;;;;;12.05;8.77;;;;;;;2.60;100.00;100038.59;5005892;28;20049;-52
2021/12/06 04:22:22;;;;;;;13.85;9.50;;;;;;;2.62;100.00;100043.81;5016390;28;20056;-51
2021/12/06 04:24:49;;;;;;;16.25;10.20;;;;;;;2.62;100.00;100047.28;5008770;28;20038;-52
2021/12/06 04:27:17;;;;;;;15.25;9.63;;;;;;;2.60;100.00;100054.28;5011067;28;20066;-53
2021/12/06 04:29:50;;;;;;;12.77;9.20;;;;;;;2.59;100.00;100049.94;5007986;28;20046;-52
2021/12/06 04:32:18;;;;;;;13.95;10.23;;;;;;;2.60;100.00;100062.13;5007471;28;20060;-52
2021/12/06 04:34:45;;;;;;;18.73;11.15;;;;;;;2.60;100.00;100059.50;5005752;28;20049;-52
2021/12/06 04:37:11;;;;;;;14.27;10.20;;;;;;;2.60;100.00;100059.50;5015479;28;20041;-53
2021/12/06 04:39:39;;;;;;;15.50;11.00;;;;;;;2.61;100.00;100069.09;5009607;28;20073;-51
2021/12/06 04:42:07;;;;;;;16.10;11.27;;;;;;;2.62;100.00;100073.41;5015438;28;20433;-53
2021/12/06 04:44:34;;;;;;;15.93;11.20;;;;;;;2.62;100.00;100080.41;5013406;28;20060;-52
2021/12/06 04:47:08;;;;;;;17.30;11.40;;;;;;;2.63;100.00;100084.75;5012002;28;20076;-54
2021/12/06 04:49:34;;;;;;;16.70;13.18;;;;;;;2.65;100.00;100086.44;5012625;28;20065;-52
2021/12/06 04:52:08;;;;;;;25.10;16.48;;;;;;;2.67;100.00;100089.03;5010332;28;20053;-52
2021/12/06 04:54:43;;;;;;;28.38;19.60;;;;;;;2.69;100.00;100095.91;5004508;28;20046;-52
2021/12/06 04:57:30;;;;;;;34.85;23.77;;;;;;;2.59;100.00;100076.09;5004550;28;20061;-53
2021/12/06 05:00:32;;;;;;;39.28;27.70;;;;;;;2.75;100.00;100102.78;5011932;28;20041;-53
2021/12/06 05:03:00;;;;;;;52.20;29.88;;;;;;;2.76;100.00;100105.38;5023209;28;20045;-54
2021/12/06 05:05:32;;;;;;;55.85;32.40;;;;;;;2.74;100.00;100101.06;5003872;28;20056;-52
2021/12/06 05:08:16;;;;;;;61.17;34.42;;;;;;;2.77;100.00;100101.00;5013187;28;20448;-53
2021/12/06 05:10:43;;;;;;;65.80;33.80;;;;;;;2.78;100.00;100092.28;5011293;28;20495;-53
2021/12/06 05:13:12;;;;;;;60.65;36.53;;;;;;;2.79;100.00;100101.84;5012139;28;20121;-55
2021/12/06 05:15:41;;;;;;;58.80;33.63;;;;;;;2.80;100.00;100099.19;5009323;28;20048;-52
2021/12/06 05:18:10;;;;;;;41.63;24.23;;;;;;;2.83;100.00;100111.38;5011188;28;20073;-53
2021/12/06 05:20:36;;;;;;;39.30;22.33;;;;;;;2.84;100.00;100102.59;5000590;28;20049;-58
2021/12/06 05:23:07;;;;;;;25.50;17.10;;;;;;;2.76;100.00;100102.75;5018046;28;20050;-52
2021/12/06 05:25:34;;;;;;;21.33;14.13;;;;;;;2.91;100.00;100132.97;5008702;28;20137;-52
2021/12/06 05:28:04;;;;;;;23.55;15.57;;;;;;;2.93;100.00;100131.19;5011458;28;20291;-53
2021/12/06 05:30:34;;;;;;;21.02;13.55;;;;;;;2.98;100.00;100137.22;5005599;28;20038;-54
2021/12/06 05:33:07;;;;;;;20.25;14.07;;;;;;;3.00;100.00;100143.25;5013316;28;20048;-53
2021/12/06 05:35:38;;;;;;;28.90;16.92;;;;;;;2.97;100.00;100143.31;5009608;28;20504;-54
2021/12/06 05:38:05;;;;;;;33.63;18.77;;;;;;;2.95;100.00;100150.34;5016799;28;20050;-53
2021/12/06 05:40:34;;;;;;;29.73;19.55;;;;;;;2.91;100.00;100153.91;5008085;28;20133;-51
2021/12/06 05:43:05;;;;;;;32.95;19.17;;;;;;;2.91;100.00;100148.66;5017156;28;20048;-53
2021/12/06 05:45:33;;;;;;;25.92;16.52;;;;;;;2.93;100.00;100157.34;5013567;28;20041;-52
2021/12/06 05:47:59;;;;;;;26.48;17.02;;;;;;;2.97;100.00;100159.03;5017353;28;20049;-53
2021/12/06 05:50:26;;;;;;;21.30;15.48;;;;;;;2.99;100.00;100159.81;5004597;28;20050;-51
2021/12/06 05:52:54;;;;;;;20.73;13.93;;;;;;;3.03;100.00;100171.09;5014444;28;20121;-52
2021/12/06 05:55:24;;;;;;;24.73;13.93;;;;;;;3.05;100.00;100175.41;5011483;28;20049;-53
2021/12/06 05:58:05;;;;;;;20.75;14.25;;;;;;;3.03;100.00;100173.72;5011496;28;20131;-52
2021/12/06 06:00:36;;;;;;;23.48;14.88;;;;;;;3.01;100.00;100175.50;5011613;28;20080;-53
2021/12/06 06:03:05;;;;;;;20.48;14.50;;;;;;;3.01;100.00;100173.75;5017004;28;20050;-53
2021/12/06 06:05:35;;;;;;;19.85;14.10;;;;;;;3.05;100.00;100180.63;5015151;28;20565;-54
2021/12/06 06:08:02;;;;;;;19.27;13.85;;;;;;;2.97;100.00;100169.47;5013518;28;20053;-53
2021/12/06 06:10:33;;;;;;;18.17;13.25;;;;;;;3.07;100.00;100191.06;5008580;28;20074;-54
2021/12/06 06:13:02;;;;;;;17.20;12.93;;;;;;;2.99;100.00;100190.38;5016429;28;20045;-53
2021/12/06 06:15:29;;;;;;;19.45;13.18;;;;;;;2.99;100.00;100200.84;5018144;28;20054;-53
2021/12/06 06:17:58;;;;;;;18.02;12.63;;;;;;;3.00;100.00;100207.78;5016975;28;20049;-52
2021/12/06 06:20:37;;;;;;;18.35;12.73;;;;;;;2.98;100.00;100194.75;5016318;28;20049;-54
2021/12/06 06:23:05;;;;;;;18.65;13.05;;;;;;;2.97;100.00;100200.88;5018959;28;20532;-56
2021/12/06 06:25:32;;;;;;;17.58;12.77;;;;;;;2.93;100.00;100207.03;5014241;28;20475;-55
2021/12/06 06:28:00;;;;;;;17.77;12.55;;;;;;;2.93;100.00;100214.03;5011897;28;20072;-52
2021/12/06 06:30:31;;;;;;;18.73;13.70;;;;;;;2.93;100.00;100211.41;5011563;28;20064;-56
2021/12/06 06:33:01;;;;;;;18.27;13.05;;;;;;;2.97;100.00;100218.31;5017641;28;20064;-53
2021/12/06 06:35:28;;;;;;;16.15;12.63;;;;;;;2.99;100.00;100212.13;5019789;28;20050;-52
2021/12/06 06:37:55;;;;;;;16.05;11.77;;;;;;;3.01;100.00;100219.97;5016046;28;21583;-52
2021/12/06 06:40:21;;;;;;;18.23;13.15;;;;;;;2.89;99.93;100207.13;5004740;28;20057;-54
2021/12/06 06:42:51;;;;;;;20.70;13.80;;;;;;;2.94;100.00;100228.84;5011901;28;20045;-53
2021/12/06 06:45:24;;;;;;;25.48;16.27;;;;;;;2.94;100.00;100234.94;5009622;28;20049;-52
2021/12/06 06:47:51;;;;;;;25.45;16.23;;;;;;;2.94;100.00;100228.84;5009315;28;20479;-51
2021/12/06 06:50:23;;;;;;;27.05;17.60;;;;;;;2.96;100.00;100237.50;5001755;28;20061;-52
2021/12/06 06:52:53;;;;;;;26.48;16.40;;;;;;;2.99;100.00;100237.47;5006607;28;20751;-53
2021/12/06 06:55:23;;;;;;;24.45;16.58;;;;;;;3.03;100.00;100239.09;5007030;28;20392;-53
2021/12/06 06:57:51;;;;;;;22.80;14.55;;;;;;;3.07;100.00;100241.66;5010180;28;20422;-53
2021/12/06 07:00:24;;;;;;;22.65;14.00;;;;;;;3.06;100.00;100245.16;5003473;28;20061;-54
2021/12/06 07:02:50;;;;;;;22.02;14.27;;;;;;;3.06;100.00;100254.75;5005247;28;20491;-51
2021/12/06 07:05:24;;;;;;;21.63;14.13;;;;;;;3.03;100.00;100258.28;5006658;28;20052;-52
2021/12/06 07:07:50;;;;;;;20.20;13.68;;;;;;;3.01;100.00;100259.19;5008297;28;20059;-58
2021/12/06 07:10:20;;;;;;;19.08;13.20;;;;;;;2.98;100.00;100256.66;5006537;28;20046;-53
2021/12/06 07:12:54;;;;;;;19.20;13.60;;;;;;;2.99;100.00;100272.28;5013084;28;20049;-54
2021/12/06 07:15:26;;;;;;;17.58;12.07;;;;;;;3.00;100.00;100273.16;5010563;28;21108;-53
2021/12/06 07:18:00;;;;;;;19.40;12.48;;;;;;;2.99;100.00;100264.44;5007097;28;20100;-53
2021/12/06 07:20:29;;;;;;;21.00;14.38;;;;;;;3.02;100.00;100260.91;5001636;28;21140;-52
2021/12/06 07:22:56;;;;;;;25.38;16.10;;;;;;;3.01;100.00;100272.28;5004976;28;20051;-52
2021/12/06 07:25:29;;;;;;;26.85;15.55;;;;;;;3.03;100.00;100271.38;5011614;28;20053;-54
2021/12/06 07:27:58;;;;;;;24.42;15.27;;;;;;;3.05;100.00;100273.94;5007364;28;20060;-52
2021/12/06 07:30:25;;;;;;;25.17;15.40;;;;;;;3.07;100.00;100278.28;5001217;28;20502;-52
2021/12/06 07:32:52;;;;;;;21.90;13.68;;;;;;;2.97;100.00;100266.25;5007589;28;20053;-52
2021/12/06 07:35:22;;;;;;;20.48;13.98;;;;;;;3.08;100.00;100284.38;5008195;28;20169;-53
2021/12/06 07:37:49;;;;;;;20.98;12.75;;;;;;;3.06;100.00;100289.63;5002522;28;20046;-53
2021/12/06 07:40:17;;;;;;;18.05;13.35;;;;;;;3.11;100.00;100292.16;5003276;28;20538;-53
2021/12/06 07:42:46;;;;;;;21.95;12.73;;;;;;;3.07;99.77;100299.19;5004369;28;20046;-51
2021/12/06 07:45:17;;;;;;;20.13;13.63;;;;;;;3.03;99.81;100307.97;5013127;28;20045;-55
2021/12/06 07:47:48;;;;;;;18.17;12.65;;;;;;;3.02;99.86;100305.41;5004492;28;20050;-52
2021/12/06 07:50:20;;;;;;;21.45;13.02;;;;;;;3.07;100.00;100304.44;5000671;28;20044;-52
2021/12/06 07:53:01;;;;;;;24.20;14.20;;;;;;;3.11;100.00;100305.25;5002332;28;20052;-52
2021/12/06 07:55:34;;;;;;;18.80;12.80;;;;;;;3.18;100.00;100299.84;5007897;28;20059;-52
2021/12/06 07:58:07;;;;;;;19.17;13.25;;;;;;;3.20;100.00;100298.97;5005948;28;20050;-52
2021/12/06 08:00:46;;;;;;;20.35;12.82;;;;;;;3.25;100.00;100299.75;5005542;28;20061;-54
2021/12/06 08:03:22;;;;;;;20.00;13.48;;;;;;;3.27;99.44;100305.81;5007799;28;20050;-53
2021/12/06 08:05:51;;;;;;;21.38;13.27;;;;;;;3.43;100.00;100308.13;5005470;28;20060;-55
2021/12/06 08:08:27;;;;;;;18.42;13.13;;;;;;;3.55;99.96;100306.16;5003319;28;20050;-53
2021/12/06 08:11:06;;;;;;;17.85;13.13;;;;;;;3.60;99.46;100304.31;5000464;28;20051;-52
2021/12/06 08:13:38;;;;;;;17.88;13.70;;;;;;;3.69;98.77;100304.13;5005326;28;20611;-51
2021/12/06 08:16:12;;;;;;;17.67;12.45;;;;;;;3.78;98.34;100314.38;5005907;28;20610;-52
2021/12/06 08:18:39;;;;;;;18.63;13.15;;;;;;;3.71;96.08;100297.09;4995754;28;20077;-53
2021/12/06 08:21:14;;;;;;;19.48;12.98;;;;;;;3.69;96.67;100301.50;5003086;28;21628;-52
2021/12/06 08:23:42;;;;;;;19.45;12.75;;;;;;;3.70;96.87;100298.84;5002501;28;20175;-52
2021/12/06 08:26:13;;;;;;;21.70;12.57;;;;;;;3.74;96.27;100304.91;5006358;28;20062;-53
2021/12/06 08:28:41;;;;;;;22.35;12.57;;;;;;;3.79;95.18;100309.13;5007903;28;20192;-52
2021/12/06 08:31:13;;;;;;;18.33;12.77;;;;;;;3.83;95.91;100305.56;5000575;28;20121;-53
2021/12/06 08:33:45;;;;;;;19.83;13.27;;;;;;;3.77;95.72;100279.50;5007117;28;20274;-52
2021/12/06 08:36:19;;;;;;;20.33;13.55;;;;;;;3.93;95.20;100308.00;5009626;28;20066;-52
2021/12/06 08:38:48;;;;;;;23.42;13.35;;;;;;;3.97;95.07;100307.00;5000280;28;20045;-53
2021/12/06 08:41:18;;;;;;;20.55;13.80;;;;;;;4.01;94.27;100312.16;5004567;28;20899;-51
2021/12/06 08:43:46;;;;;;;20.83;12.88;;;;;;;4.02;93.96;100297.31;5013689;28;20056;-52
2021/12/06 08:46:39;;;;;;;19.55;13.95;;;;;;;4.21;97.07;100309.97;5010465;28;20053;-52
2021/12/06 08:49:09;;;;;;;23.40;13.98;;;;;;;4.37;95.74;100313.13;5004520;28;20050;-51
2021/12/06 08:51:44;;;;;;;22.38;14.10;;;;;;;4.35;92.48;100312.28;5009207;28;20137;-52
2021/12/06 08:54:14;;;;;;;24.08;13.48;;;;;;;4.33;91.64;100315.84;5013465;28;20053;-53
2021/12/06 08:56:46;;;;;;;20.48;13.40;;;;;;;4.29;90.34;100312.41;5007578;28;20096;-54
2021/12/06 08:59:22;;;;;;;20.77;13.70;;;;;;;4.28;91.08;100315.94;5013807;28;20044;-52
2021/12/06 09:01:49;;;;;;;25.98;13.50;;;;;;;4.34;89.65;100314.94;5007904;28;20057;-59
2021/12/06 09:04:44;;;;;;;17.58;12.77;;;;;;;4.35;90.25;100309.66;5010775;28;20060;-52
2021/12/06 09:07:15;;;;;;;23.67;13.70;;;;;;;4.45;90.87;100308.53;5007158;28;20054;-52
2021/12/06 09:09:46;;;;;;;18.58;13.18;;;;;;;4.49;89.38;100304.97;5010264;28;20042;-53
2021/12/06 09:12:22;;;;;;;20.73;13.85;;;;;;;4.48;89.25;100303.22;5012395;28;20076;-52
2021/12/06 09:14:59;;;;;;;22.20;13.73;;;;;;;4.48;89.25;100297.13;5016614;28;20077;-54
2021/12/06 09:17:29;;;;;;;23.10;14.40;;;;;;;4.49;88.19;100299.72;5012746;28;20049;-52
2021/12/06 09:19:56;;;;;;;;;;;;;;;4.43;88.07;100298.97;5013958;28;20474;-52
2021/12/06 09:22:24;;;;;;;22.42;14.63;;;;;;;4.34;88.41;100300.06;5009358;28;20280;-52
2021/12/06 09:24:51;;;;;;;23.10;15.63;;;;;;;4.31;88.29;100299.28;5008718;28;20045;-53
2021/12/06 09:27:24;;;;;;;19.83;14.35;;;;;;;4.29;88.75;100291.44;5013286;28;20059;-53
2021/12/06 09:29:55;;;;;;;20.27;14.73;;;;;;;4.34;87.44;100299.22;5013227;28;20045;-52
2021/12/06 09:32:22;;;;;;;21.48;14.85;;;;;;;4.36;86.94;100294.78;5013628;28;20502;-56
2021/12/06 09:34:49;;;;;;;20.63;14.75;;;;;;;4.28;86.95;100283.59;5019391;28;20045;-53
2021/12/06 09:37:21;;;;;;;19.17;13.45;;;;;;;4.41;87.89;100296.38;5009804;28;20127;-52
2021/12/06 09:39:48;;;;;;;25.63;14.93;;;;;;;4.48;87.16;100297.13;5015086;28;20055;-53
2021/12/06 09:42:22;;;;;;;23.00;15.20;;;;;;;4.47;87.68;100298.88;5011194;28;20050;-55
2021/12/06 09:44:56;;;;;;;23.42;15.65;;;;;;;4.50;87.59;100306.69;5011611;28;20479;-54
2021/12/06 09:47:29;;;;;;;21.67;15.40;;;;;;;4.40;87.19;100284.22;5008759;28;20104;-52
2021/12/06 09:49:55;;;;;;;22.48;16.00;;;;;;;4.51;86.28;100300.53;5014464;28;20472;-52
2021/12/06 09:52:22;;;;;;;21.33;14.13;;;;;;;4.39;86.89;100287.72;5003386;28;20050;-53
2021/12/06 09:54:52;;;;;;;19.88;14.10;;;;;;;4.55;85.83;100299.56;5014208;28;20044;-53
2021/12/06 09:57:19;;;;;;;22.20;15.10;;;;;;;4.56;86.20;100300.44;5019357;28;20041;-53
2021/12/06 09:59:46;;;;;;;25.15;15.48;;;;;;;4.56;86.39;100303.06;5010669;28;20037;-53
2021/12/06 10:02:16;;;;;;;21.50;14.02;;;;;;;4.47;86.73;100306.75;5005680;28;20051;-52
2021/12/06 10:04:55;;;;;;;22.75;14.15;;;;;;;4.35;86.61;100312.28;5015160;28;20795;-53
2021/12/06 10:07:24;;;;;;;20.73;15.15;;;;;;;4.30;87.03;100316.75;5009035;28;20041;-53
2021/12/06 10:09:53;;;;;;;22.50;15.32;;;;;;;4.37;87.28;100317.50;5018194;28;20152;-53
2021/12/06 10:12:22;;;;;;;22.85;15.95;;;;;;;4.41;87.95;100321.75;5012179;28;20047;-51
2021/12/06 10:14:49;;;;;;;21.70;15.70;;;;;;;4.41;87.61;100321.75;5012129;28;20464;-52
2021/12/06 10:17:19;;;;;;;23.88;15.68;;;;;;;4.47;88.19;100317.25;5010419;28;20461;-54
2021/12/06 10:19:47;;;;;;;23.60;15.50;;;;;;;4.49;87.40;100304.09;5010991;28;20041;-52
2021/12/06 10:22:27;;;;;;;22.92;15.18;;;;;;;4.55;86.60;100319.69;5005774;28;20041;-53
2021/12/06 10:25:04;;;;;;;23.17;16.65;;;;;;;4.51;87.06;100310.16;5015256;28;20438;-53
2021/12/06 10:27:56;;;;;;;22.15;15.73;;;;;;;4.56;87.20;100313.56;5011303;28;20060;-53
2021/12/06 10:30:26;;;;;;;23.08;15.90;;;;;;;4.64;87.10;100310.72;5005219;28;20049;-55
2021/12/06 10:33:26;;;;;;;19.98;14.73;;;;;;;4.70;85.85;100308.84;5010200;28;20129;-53
2021/12/06 10:35:57;;;;;;;20.98;14.70;;;;;;;4.71;85.44;100312.31;5015917;28;20046;-51
2021/12/06 10:38:33;;;;;;;21.90;15.60;;;;;;;4.74;86.36;100305.22;5007370;28;20096;-52
2021/12/06 10:41:07;;;;;;;20.75;14.90;;;;;;;4.81;85.52;100306.81;5010464;28;20135;-51
2021/12/06 10:43:35;;;;;;;24.38;15.90;;;;;;;4.89;85.76;100307.44;5013564;28;20055;-52
2021/12/06 10:46:04;;;;;;;25.65;16.15;;;;;;;5.11;84.14;100309.53;5008095;28;20069;-51
2021/12/06 10:48:35;;;;;;;23.88;15.85;;;;;;;5.10;83.61;100295.56;5009158;28;20053;-53
2021/12/06 10:51:16;;;;;;;23.73;14.82;;;;;;;5.25;83.75;100310.91;5014592;28;20049;-52
2021/12/06 10:53:59;;;;;;;21.63;15.88;;;;;;;5.31;83.12;100304.63;5011358;28;20446;-57
2021/12/06 10:56:39;;;;;;;20.85;15.07;;;;;;;5.43;82.55;100312.19;5015336;28;20053;-53
2021/12/06 10:59:17;;;;;;;20.58;15.02;;;;;;;5.54;80.87;100309.25;5020356;28;20492;-52
2021/12/06 11:01:52;;;;;;;23.95;15.25;;;;;;;5.46;81.70;100313.84;5009506;28;20041;-53
2021/12/06 11:04:24;;;;;;;21.88;14.70;;;;;;;5.52;82.06;100314.53;5019018;28;20045;-53
2021/12/06 11:06:53;;;;;;;24.13;15.52;;;;;;;5.56;81.78;100315.31;5009399;28;20045;-57
2021/12/06 11:09:42;;;;;;;23.23;16.45;;;;;;;5.67;81.69;100321.13;5019043;28;20037;-57
2021/12/06 11:12:17;;;;;;;25.08;16.95;;;;;;;5.72;81.19;100308.72;5008842;28;20077;-52
2021/12/06 11:14:48;;;;;;;24.90;17.05;;;;;;;5.84;80.23;100304.88;5014700;28;20604;-53
2021/12/06 11:17:19;;;;;;;26.83;18.53;;;;;;;6.00;79.90;100293.03;5008095;28;20696;-53
2021/12/06 11:19:51;;;;;;;22.52;17.77;;;;;;;6.19;78.30;100282.84;5010995;28;20606;-55
2021/12/06 11:22:26;;;;;;;28.92;17.63;;;;;;;6.40;78.08;100286.56;5011869;28;20056;-52
2021/12/06 11:24:56;;;;;;;27.55;18.42;;;;;;;6.47;76.80;100288.94;5017542;28;20072;-52
2021/12/06 11:27:27;;;;;;;24.77;17.63;;;;;;;6.49;76.63;100292.41;5009698;28;20057;-56
2021/12/06 11:30:00;;;;;;;24.80;18.42;;;;;;;6.43;76.42;100261.03;5010501;28;20069;-57
2021/12/06 11:32:30;;;;;;;27.23;18.73;;;;;;;6.33;76.97;100267.47;5004364;28;20407;-52
2021/12/06 11:34:59;;;;;;;27.67;18.83;;;;;;;6.26;78.77;100268.59;5012831;28;20064;-53
2021/12/06 11:37:33;;;;;;;28.65;20.15;;;;;;;6.30;77.80;100273.69;5006591;28;20049;-54
2021/12/06 11:40:09;;;;;;;30.17;21.90;;;;;;;6.22;78.91;100272.22;5009580;28;20048;-54
2021/12/06 11:43:00;;;;;;;32.22;22.92;;;;;;;6.14;79.22;100275.09;5008261;28;20052;-53
2021/12/06 11:45:34;;;;;;;34.75;22.42;;;;;;;6.14;79.63;100279.50;5013278;28;20489;-55
2021/12/06 11:48:11;;;;;;;30.95;21.20;;;;;;;6.08;80.08;100279.69;5010276;28;20041;-53
2021/12/06 11:50:40;;;;;;;30.70;21.10;;;;;;;5.97;79.60;100270.38;5009894;28;20073;-53
2021/12/06 11:53:08;;;;;;;31.23;20.88;;;;;;;5.93;80.16;100286.25;5006767;28;20088;-53